createdAt,value
2019-01-04T00:03:09.511Z,11.13
2019-01-04T00:07:14.576Z,10.00
2019-01-04T00:11:19.899Z,9.33
2019-01-04T00:15:25.024Z,9.93
2019-01-04T00:19:30.154Z,9.93
2019-01-04T00:23:35.205Z,10.27
2019-01-04T00:27:40.248Z,8.83
2019-01-04T00:31:45.314Z,8.50
2019-01-04T00:35:50.614Z,11.70
2019-01-04T00:39:55.775Z,11.30
2019-01-04T00:44:19.866Z,10.50
2019-01-04T00:48:24.957Z,12.90
2019-01-04T00:52:30.012Z,11.65
2019-01-04T00:57:02.136Z,9.60
2019-01-04T01:01:45.355Z,14.93
2019-01-04T01:06:28.570Z,10.20
2019-01-04T01:11:11.859Z,14.87
2019-01-04T01:15:46.513Z,13.00
2019-01-04T01:20:37.082Z,14.97
2019-01-04T01:25:20.272Z,16.53
2019-01-04T01:30:03.483Z,15.93
2019-01-04T01:39:46.934Z,16.73
2019-01-04T01:44:30.250Z,19.63
2019-01-04T01:48:42.157Z,19.87
2019-01-04T01:52:49.298Z,18.93
2019-01-04T01:56:54.389Z,18.17
2019-01-04T02:00:59.451Z,20.30
2019-01-04T02:05:04.872Z,19.67
2019-01-04T02:09:10.963Z,14.83
2019-01-04T02:13:16.025Z,17.90
2019-01-04T02:17:21.076Z,14.27
2019-01-04T02:21:26.514Z,14.57
2019-01-04T02:25:31.582Z,13.93
2019-01-04T02:29:36.626Z,18.27
2019-01-04T02:33:41.621Z,17.00
2019-01-04T02:37:46.705Z,18.23
2019-01-04T02:41:51.782Z,18.50
2019-01-04T02:45:56.800Z,19.90
2019-01-04T02:50:01.982Z,20.10
2019-01-04T02:54:07.025Z,15.73
2019-01-04T02:58:12.003Z,15.20
2019-01-04T03:02:17.139Z,17.87
2019-01-04T03:06:22.252Z,13.10
2019-01-04T03:10:27.299Z,15.80
2019-01-04T03:14:32.263Z,14.43
2019-01-04T03:18:37.207Z,15.70
2019-01-04T03:22:42.241Z,13.80
2019-01-04T03:26:47.297Z,21.87
2019-01-04T03:30:54.288Z,21.57
2019-01-04T03:35:18.177Z,23.23
2019-01-04T03:39:23.209Z,23.93
2019-01-04T03:43:28.327Z,23.73
2019-01-04T03:47:33.422Z,23.67
2019-01-04T03:56:28.223Z,27.40
2019-01-04T04:00:33.307Z,26.70
2019-01-04T04:04:38.435Z,28.60
2019-01-04T04:08:43.507Z,29.80
2019-01-04T04:12:48.553Z,28.37
2019-01-04T04:16:53.594Z,29.23
2019-01-04T04:20:58.653Z,31.47
2019-01-04T04:25:03.768Z,33.50
2019-01-04T04:29:08.830Z,33.00
2019-01-04T04:33:13.892Z,32.27
2019-01-04T04:37:18.863Z,36.27
2019-01-04T04:41:23.755Z,34.73
2019-01-04T04:45:28.774Z,30.80
2019-01-04T04:49:33.797Z,36.23
2019-01-04T04:53:38.760Z,44.47
2019-01-04T04:57:44.061Z,41.53
2019-01-04T05:01:49.141Z,48.03
2019-01-04T05:05:54.113Z,49.33
2019-01-04T05:09:59.309Z,44.20
2019-01-04T05:14:06.015Z,44.23
2019-01-04T05:18:11.046Z,47.87
2019-01-04T05:22:16.083Z,47.67
2019-01-04T05:26:21.163Z,39.30
2019-01-04T05:30:26.271Z,48.50
2019-01-04T05:34:31.276Z,54.77
2019-01-04T05:38:36.265Z,48.07
2019-01-04T05:42:41.288Z,51.17
2019-01-04T05:46:46.348Z,51.23
2019-01-04T05:50:51.428Z,50.55
2019-01-04T05:54:56.616Z,50.70
2019-01-04T05:59:01.701Z,38.73
2019-01-04T06:03:06.856Z,43.87
2019-01-04T06:07:11.830Z,42.53
2019-01-04T06:11:16.868Z,38.63
2019-01-04T06:15:22.014Z,38.73
2019-01-04T06:19:27.111Z,35.97
2019-01-04T06:23:32.181Z,32.63
2019-01-04T06:27:37.275Z,35.73
2019-01-04T06:31:42.322Z,33.73
2019-01-04T06:35:47.396Z,38.07
2019-01-04T06:39:52.399Z,32.83
2019-01-04T06:43:57.377Z,38.63
2019-01-04T06:48:02.319Z,36.93
2019-01-04T06:52:07.386Z,35.50
2019-01-04T06:56:12.457Z,38.33
2019-01-04T07:00:17.530Z,37.90
2019-01-04T07:04:22.607Z,40.50
2019-01-04T07:08:27.681Z,34.97
2019-01-04T07:12:32.668Z,42.23
2019-01-04T07:16:37.791Z,47.07
2019-01-04T07:24:59.623Z,49.27
2019-01-04T07:29:04.697Z,50.37
2019-01-04T07:33:09.861Z,42.23
2019-01-04T07:37:14.904Z,42.23
2019-01-04T07:41:20.047Z,42.75
2019-01-04T07:45:25.199Z,41.03
2019-01-04T07:49:30.602Z,40.80
2019-01-04T07:53:35.642Z,47.57
2019-01-04T07:57:40.766Z,44.97
2019-01-04T08:01:45.893Z,44.30
2019-01-04T08:05:52.188Z,40.97
2019-01-04T08:09:57.205Z,48.37
2019-01-04T08:14:02.253Z,47.37
2019-01-04T08:18:07.428Z,51.43
2019-01-04T08:22:12.501Z,45.33
2019-01-04T08:26:17.913Z,57.40
2019-01-04T08:30:22.961Z,50.87
2019-01-04T08:34:27.938Z,48.73
2019-01-04T08:38:32.982Z,52.80
2019-01-04T08:42:38.071Z,50.30
2019-01-04T08:46:43.199Z,63.43
2019-01-04T08:50:48.284Z,55.23
2019-01-04T08:54:53.372Z,51.83
2019-01-04T08:58:58.503Z,52.63
2019-01-04T09:03:03.561Z,50.93
2019-01-04T09:07:08.932Z,53.13
2019-01-04T09:11:13.958Z,50.53
2019-01-04T09:15:18.933Z,48.60
2019-01-04T09:19:23.993Z,47.77
2019-01-04T09:23:29.096Z,45.87
2019-01-04T09:27:34.506Z,44.93
2019-01-04T09:31:39.671Z,47.53
2019-01-04T09:35:44.805Z,43.07
2019-01-04T09:39:49.889Z,36.63
2019-01-04T09:43:55.079Z,35.43
2019-01-04T09:48:00.177Z,36.37
2019-01-04T09:52:05.415Z,35.50
2019-01-04T09:56:10.625Z,30.00
2019-01-04T10:00:15.740Z,26.27
2019-01-04T10:04:20.890Z,24.70
2019-01-04T10:08:29.705Z,23.70
2019-01-04T10:12:34.768Z,18.32
2019-01-04T10:16:39.859Z,18.30
2019-01-04T10:20:44.907Z,16.67
2019-01-04T10:24:49.955Z,15.63
2019-01-04T10:28:54.924Z,16.57
2019-01-04T10:32:59.989Z,15.43
2019-01-04T10:37:05.120Z,16.37
2019-01-04T10:41:10.167Z,17.07
2019-01-04T10:45:15.206Z,15.67
2019-01-04T10:49:20.159Z,16.00
2019-01-04T10:53:25.194Z,16.13
2019-01-04T10:57:30.264Z,18.47
2019-01-04T11:01:35.422Z,19.13
2019-01-04T11:05:40.307Z,21.10
2019-01-04T11:09:45.615Z,20.57
2019-01-04T11:13:50.644Z,22.03
2019-01-04T11:17:55.634Z,24.27
2019-01-04T11:22:38.810Z,24.47
2019-01-04T11:27:22.022Z,26.93
2019-01-04T11:31:49.594Z,25.02
2019-01-04T11:36:32.877Z,23.87
2019-01-04T11:41:03.248Z,24.20
2019-01-04T11:45:34.898Z,26.37
2019-01-04T11:50:18.088Z,29.93
2019-01-04T11:54:26.814Z,30.10
2019-01-04T11:58:31.862Z,34.50
2019-01-04T12:02:36.938Z,31.50
2019-01-04T12:06:42.031Z,33.23
2019-01-04T12:10:47.121Z,33.47
2019-01-04T12:15:02.279Z,32.00
2019-01-04T12:19:08.966Z,31.57
2019-01-04T12:23:14.084Z,31.67
2019-01-04T12:27:30.981Z,33.63
2019-01-04T12:31:36.024Z,33.30
2019-01-04T12:35:41.049Z,32.47
2019-01-04T12:39:46.181Z,30.70
2019-01-04T12:43:51.243Z,28.90
2019-01-04T12:47:56.284Z,29.13
2019-01-04T12:52:01.309Z,29.10
2019-01-04T12:56:06.368Z,31.27
2019-01-04T13:00:13.596Z,31.17
2019-01-04T13:04:19.592Z,29.87
2019-01-04T13:08:24.750Z,29.13
2019-01-04T13:12:30.772Z,30.83
2019-01-04T13:16:36.261Z,29.43
2019-01-04T13:20:41.296Z,30.67
2019-01-04T13:24:46.426Z,29.60
2019-01-04T13:28:51.430Z,35.50
2019-01-04T13:32:56.645Z,31.90
2019-01-04T13:37:01.840Z,32.27
2019-01-04T13:41:06.959Z,34.50
2019-01-04T13:45:12.278Z,33.07
2019-01-04T13:49:17.287Z,38.13
2019-01-04T13:53:22.383Z,35.30
2019-01-04T13:57:27.479Z,40.77
2019-01-04T14:01:32.499Z,40.63
2019-01-04T14:05:37.586Z,40.17
2019-01-04T14:09:42.739Z,38.73
2019-01-04T14:13:47.850Z,41.33
2019-01-04T14:17:52.951Z,43.83
2019-01-04T14:21:57.944Z,48.80
2019-01-04T14:26:02.946Z,47.30
2019-01-04T14:30:09.966Z,44.57
2019-01-04T14:34:15.120Z,45.37
2019-01-04T14:38:20.294Z,45.60
2019-01-04T14:42:25.495Z,47.77
2019-01-04T14:46:30.459Z,52.57
2019-01-04T14:50:35.574Z,53.63
2019-01-04T14:54:40.655Z,60.87
2019-01-04T14:58:45.743Z,57.20
2019-01-04T15:02:50.844Z,61.17
2019-01-04T15:11:26.742Z,57.93
2019-01-04T15:15:31.935Z,54.77
2019-01-04T15:19:37.030Z,57.03
2019-01-04T15:23:42.130Z,60.30
2019-01-04T15:27:47.155Z,63.57
2019-01-04T15:31:52.505Z,60.53
2019-01-04T15:35:57.579Z,63.90
2019-01-04T15:40:02.756Z,63.10
2019-01-04T15:44:07.847Z,59.53
2019-01-04T15:48:12.987Z,59.97
2019-01-04T15:52:18.190Z,69.83
2019-01-04T15:56:23.321Z,62.17
2019-01-04T16:00:28.392Z,64.30
2019-01-04T16:04:33.570Z,61.13
2019-01-04T16:08:38.572Z,65.27
2019-01-04T16:12:43.675Z,62.17
2019-01-04T16:16:48.818Z,58.30
2019-01-04T16:20:54.228Z,65.43
2019-01-04T16:24:59.238Z,56.40
2019-01-04T16:29:04.323Z,60.57
2019-01-04T16:33:09.429Z,58.50
2019-01-04T16:37:14.790Z,58.00
2019-01-04T16:41:19.986Z,57.13
2019-01-04T16:45:25.102Z,68.80
2019-01-04T16:54:02.357Z,57.70
2019-01-04T16:58:07.532Z,58.07
2019-01-04T17:02:32.073Z,58.53
2019-01-04T17:06:37.317Z,59.93
2019-01-04T17:10:42.647Z,62.17
2019-01-04T17:14:48.180Z,61.55
2019-01-04T17:18:53.093Z,61.20
2019-01-04T17:22:58.193Z,59.17
2019-01-04T17:27:03.357Z,58.57
2019-01-04T17:31:08.443Z,59.43
2019-01-04T17:35:13.637Z,53.93
2019-01-04T17:39:18.745Z,60.20
2019-01-04T17:43:23.867Z,61.90
2019-01-04T17:47:29.077Z,55.23
2019-01-04T17:51:34.494Z,57.23
2019-01-04T17:55:39.643Z,59.60
2019-01-04T17:59:44.699Z,53.80
2019-01-04T18:03:49.893Z,58.17
2019-01-04T18:07:54.953Z,57.23
2019-01-04T18:12:00.087Z,56.77
2019-01-04T18:16:05.210Z,58.57
2019-01-04T18:20:11.102Z,59.37
2019-01-04T18:28:41.985Z,53.43
2019-01-04T18:32:47.098Z,58.57
2019-01-04T18:36:55.230Z,56.80
2019-01-04T18:41:00.347Z,52.97
2019-01-04T18:45:08.125Z,53.33
2019-01-04T18:49:13.292Z,55.57
2019-01-04T18:53:18.418Z,55.80
2019-01-04T18:57:23.559Z,59.00
2019-01-04T19:01:28.668Z,55.17
2019-01-04T19:05:33.720Z,57.13
2019-01-04T19:09:40.437Z,57.50
2019-01-04T19:13:45.525Z,53.93
2019-01-04T19:17:50.546Z,55.37
2019-01-04T19:21:55.936Z,58.60
2019-01-04T19:30:17.312Z,57.93
2019-01-04T19:34:22.456Z,57.00
2019-01-04T19:38:27.624Z,58.63
2019-01-04T19:42:32.722Z,61.23
2019-01-04T19:46:37.817Z,62.73
2019-01-04T19:50:42.852Z,59.13
2019-01-04T19:54:47.857Z,59.30
2019-01-04T19:58:53.038Z,61.50
2019-01-04T20:02:58.089Z,62.27
2019-01-04T20:08:01.926Z,60.37
2019-01-04T20:13:04.261Z,61.80
2019-01-04T20:17:28.958Z,62.43
2019-01-04T20:21:53.064Z,62.60
2019-01-04T20:26:17.275Z,57.43
2019-01-04T20:30:41.471Z,59.50
2019-01-04T20:35:05.744Z,61.47
2019-01-04T20:39:29.958Z,60.53
2019-01-04T20:43:53.936Z,60.27
2019-01-04T20:48:18.407Z,57.37
2019-01-04T20:57:19.227Z,58.13
2019-01-04T21:01:43.270Z,59.30
2019-01-04T21:06:07.409Z,55.67
2019-01-04T21:10:31.552Z,59.00
2019-01-04T21:14:54.100Z,58.13
2019-01-04T21:19:18.122Z,55.33
2019-01-04T21:23:32.952Z,57.90
2019-01-04T21:27:57.073Z,56.37
2019-01-04T21:32:21.110Z,60.00
2019-01-04T21:36:45.150Z,59.93
2019-01-04T21:45:54.652Z,56.33
2019-01-04T21:50:18.766Z,56.93
2019-01-04T21:54:43.240Z,59.20
2019-01-04T21:59:03.386Z,62.50
2019-01-04T22:08:03.531Z,62.00
2019-01-04T22:12:27.515Z,60.70
2019-01-04T22:16:51.502Z,64.37
2019-01-04T22:21:15.596Z,62.43
2019-01-04T22:25:39.690Z,60.87
2019-01-04T22:30:03.674Z,61.97
2019-01-04T22:34:27.688Z,65.30
2019-01-04T22:38:53.392Z,59.13
2019-01-04T22:43:17.399Z,63.03
2019-01-04T22:47:41.461Z,69.20
2019-01-04T22:52:05.531Z,70.87
2019-01-04T22:56:29.592Z,63.10
2019-01-04T23:00:54.707Z,62.27
2019-01-04T23:05:18.771Z,62.97
2019-01-04T23:09:33.874Z,59.73
2019-01-04T23:13:57.883Z,64.20
2019-01-04T23:18:23.913Z,64.53
2019-01-04T23:22:59.631Z,59.50
2019-01-04T23:27:23.647Z,61.20
2019-01-04T23:31:47.735Z,58.43
2019-01-04T23:36:17.343Z,62.97
2019-01-04T23:40:37.385Z,60.57
2019-01-04T23:45:01.437Z,57.13
2019-01-04T23:49:25.502Z,59.03
2019-01-04T23:53:49.916Z,60.10
2019-01-04T23:58:14.095Z,60.27
